Terminal Aerodrome Forecast
Issued by NWS Omaha/Valley, NE

Home | Current Version | Previous Version | Graphics & Text | Print | Product List | Glossary On
Versions: 1 2 3 4 5 6 7 8 9 10 11 12 13 14 15 16 17 18 19 20
000
FTUS43 KOAX 281904 AAA
TAFOFK
TAF AMD
KOFK 281904Z 2819/2918 04014G20KT P6SM -RA OVC012
      TEMPO 2820/2822 5SM -RA BR OVC008
     FM290000 04011KT P6SM OVC025
     FM290500 02010KT P6SM OVC035
     FM291500 03014KT P6SM OVC030=

USA.gov is the U.S. government's official web portal to all federal, state and local government web resources and services.